createdAt,value
2018-09-24T00:00:30.439Z,7.07
2018-09-24T00:03:05.712Z,6.93
2018-09-24T00:05:41.942Z,8.03
2018-09-24T00:08:17.509Z,7.20
2018-09-24T00:10:52.776Z,7.73
2018-09-24T00:13:29.029Z,7.80
2018-09-24T00:16:04.806Z,8.13
2018-09-24T00:18:40.913Z,8.57
2018-09-24T00:21:17.000Z,6.70
2018-09-24T00:23:52.454Z,6.80
2018-09-24T00:26:28.194Z,7.10
2018-09-24T00:29:03.961Z,8.17
2018-09-24T00:31:39.184Z,7.10
2018-09-24T00:34:17.872Z,8.30
2018-09-24T00:37:02.197Z,8.00
2018-09-24T00:39:37.867Z,7.50
2018-09-24T00:42:12.812Z,7.97
2018-09-24T00:44:48.625Z,7.90
2018-09-24T00:47:23.861Z,7.20
2018-09-24T00:49:59.797Z,7.07
2018-09-24T00:52:36.142Z,9.00
2018-09-24T00:55:12.124Z,8.70
2018-09-24T00:57:47.822Z,8.13
2018-09-24T01:00:23.320Z,7.80
2018-09-24T01:02:58.581Z,8.37
2018-09-24T01:05:34.253Z,7.50
2018-09-24T01:08:10.585Z,7.00
2018-09-24T01:10:46.415Z,7.73
2018-09-24T01:13:22.153Z,8.67
2018-09-24T01:15:57.702Z,7.80
2018-09-24T01:18:33.121Z,8.20
2018-09-24T01:21:08.773Z,7.70
2018-09-24T01:23:44.853Z,7.47
2018-09-24T01:26:20.355Z,7.93
2018-09-24T01:28:56.048Z,8.27
2018-09-24T01:31:31.729Z,8.10
2018-09-24T01:34:07.869Z,7.90
2018-09-24T01:36:44.413Z,7.20
2018-09-24T01:39:20.288Z,7.90
2018-09-24T01:41:55.401Z,7.73
2018-09-24T01:44:31.366Z,7.87
2018-09-24T01:47:09.248Z,8.63
2018-09-24T01:49:44.178Z,8.43
2018-09-24T01:52:19.876Z,6.80
2018-09-24T01:54:55.400Z,8.70
2018-09-24T01:57:32.048Z,8.40
2018-09-24T02:00:07.995Z,8.77
2018-09-24T02:02:43.696Z,8.60
2018-09-24T02:05:19.553Z,8.50
2018-09-24T02:07:55.274Z,9.10
2018-09-24T02:10:33.070Z,9.53
2018-09-24T02:13:10.140Z,9.30
2018-09-24T02:15:46.981Z,9.30
2018-09-24T02:18:22.782Z,9.07
2018-09-24T02:20:59.228Z,7.17
2018-09-24T02:23:35.176Z,8.23
2018-09-24T02:26:10.442Z,8.20
2018-09-24T02:28:46.659Z,7.97
2018-09-24T02:31:22.925Z,8.17
2018-09-24T02:33:58.517Z,9.60
2018-09-24T02:36:37.126Z,8.60
2018-09-24T02:39:12.946Z,9.00
2018-09-24T02:41:48.959Z,9.03
2018-09-24T02:44:24.972Z,8.50
2018-09-24T02:47:00.567Z,8.20
2018-09-24T02:49:35.799Z,9.67
2018-09-24T02:52:11.354Z,8.13
2018-09-24T02:54:46.974Z,8.60
2018-09-24T02:57:22.969Z,9.07
2018-09-24T02:59:59.358Z,7.57
2018-09-24T03:02:35.169Z,7.87
2018-09-24T03:05:10.523Z,8.67
2018-09-24T03:07:46.905Z,7.90
2018-09-24T03:10:24.024Z,8.30
2018-09-24T03:12:59.829Z,8.70
2018-09-24T03:15:36.122Z,8.10
2018-09-24T03:18:12.097Z,8.20
2018-09-24T03:20:47.756Z,8.43
2018-09-24T03:23:23.940Z,8.30
2018-09-24T03:25:59.816Z,7.60
2018-09-24T03:28:35.466Z,8.50
2018-09-24T03:31:10.609Z,8.83
2018-09-24T03:33:46.228Z,9.00
2018-09-24T03:36:22.381Z,8.77
2018-09-24T03:38:58.291Z,8.77
2018-09-24T03:41:33.378Z,9.30
2018-09-24T03:44:09.778Z,9.07
2018-09-24T03:46:45.353Z,9.77
2018-09-24T03:49:20.333Z,9.30
2018-09-24T03:51:56.649Z,9.50
2018-09-24T03:54:33.210Z,9.23
2018-09-24T03:57:08.449Z,11.20
2018-09-24T03:59:44.473Z,10.03
2018-09-24T04:02:20.173Z,9.57
2018-09-24T04:05:00.818Z,9.50
2018-09-24T04:07:41.567Z,9.40
2018-09-24T04:10:22.049Z,10.10
2018-09-24T04:13:02.240Z,9.80
2018-09-24T04:15:42.978Z,10.40
2018-09-24T04:18:23.606Z,9.50
2018-09-24T04:21:04.248Z,10.50
2018-09-24T04:23:44.970Z,10.70
2018-09-24T04:26:25.600Z,9.90
2018-09-24T04:29:05.913Z,10.93
2018-09-24T04:31:46.213Z,10.57
2018-09-24T04:34:27.857Z,10.00
2018-09-24T04:37:08.381Z,10.40
2018-09-24T04:39:49.415Z,10.80
2018-09-24T04:42:30.567Z,12.40
2018-09-24T04:45:10.928Z,10.63
2018-09-24T04:47:51.864Z,11.27
2018-09-24T04:50:32.185Z,10.00
2018-09-24T04:53:13.215Z,11.00
2018-09-24T04:55:53.282Z,11.10
2018-09-24T04:58:33.706Z,11.77
2018-09-24T05:01:14.897Z,12.67
2018-09-24T05:03:56.336Z,11.50
2018-09-24T05:06:37.053Z,12.57
2018-09-24T05:09:18.251Z,14.13
2018-09-24T05:11:58.896Z,12.53
2018-09-24T05:14:39.488Z,14.07
2018-09-24T05:17:19.848Z,14.07
2018-09-24T05:20:01.132Z,12.77
2018-09-24T05:22:42.299Z,14.30
2018-09-24T05:25:22.500Z,13.43
2018-09-24T05:28:03.146Z,13.47
2018-09-24T05:30:43.776Z,13.87
2018-09-24T05:33:24.778Z,13.13
2018-09-24T05:36:06.221Z,13.40
2018-09-24T05:38:47.444Z,12.90
2018-09-24T05:41:27.644Z,14.13
2018-09-24T05:44:08.789Z,14.00
2018-09-24T05:46:49.780Z,14.70
2018-09-24T05:49:29.774Z,13.70
2018-09-24T05:52:10.901Z,13.73
2018-09-24T05:54:57.902Z,14.17
2018-09-24T05:57:38.175Z,13.60
2018-09-24T06:00:19.143Z,13.93
2018-09-24T06:02:59.712Z,15.43
2018-09-24T06:05:40.502Z,15.47
2018-09-24T06:08:21.391Z,15.70
2018-09-24T06:11:02.365Z,15.40
2018-09-24T06:13:42.703Z,15.17
2018-09-24T06:16:23.617Z,16.43
2018-09-24T06:19:04.502Z,15.43
2018-09-24T06:21:45.299Z,16.37
2018-09-24T06:24:26.688Z,15.20
2018-09-24T06:27:07.449Z,15.77
2018-09-24T06:29:48.722Z,15.03
2018-09-24T06:32:28.896Z,15.27
2018-09-24T06:35:09.369Z,16.00
2018-09-24T06:37:50.397Z,15.90
2018-09-24T06:40:30.580Z,16.30
2018-09-24T06:43:11.022Z,16.47
2018-09-24T06:45:52.319Z,14.73
2018-09-24T06:48:32.998Z,16.97
2018-09-24T06:51:14.052Z,15.50
2018-09-24T06:53:54.168Z,15.70
2018-09-24T06:56:34.961Z,14.70
2018-09-24T06:59:15.500Z,15.23
2018-09-24T07:02:03.236Z,15.67
2018-09-24T07:04:43.583Z,16.27
2018-09-24T07:07:25.004Z,16.70
2018-09-24T07:10:05.114Z,15.30
2018-09-24T07:12:45.711Z,14.73
2018-09-24T07:15:25.848Z,14.70
2018-09-24T07:18:06.606Z,15.30
2018-09-24T07:20:47.361Z,15.13
2018-09-24T07:23:28.520Z,15.67
2018-09-24T07:26:09.288Z,14.13
2018-09-24T07:28:49.688Z,14.37
2018-09-24T07:31:30.253Z,15.27
2018-09-24T07:34:10.820Z,15.10
2018-09-24T07:36:50.758Z,15.60
2018-09-24T07:39:31.651Z,14.87
2018-09-24T07:42:11.927Z,16.03
2018-09-24T07:44:52.649Z,17.20
2018-09-24T07:47:33.576Z,16.20
2018-09-24T07:50:14.965Z,12.80
2018-09-24T07:52:55.192Z,13.07
2018-09-24T07:55:35.760Z,11.57
2018-09-24T07:58:16.108Z,11.13
2018-09-24T08:00:57.016Z,10.70
2018-09-24T08:03:37.972Z,9.87
2018-09-24T08:06:18.571Z,9.93
2018-09-24T08:08:59.596Z,10.60
2018-09-24T08:11:40.184Z,9.03
2018-09-24T08:14:21.091Z,7.80
2018-09-24T08:17:01.998Z,6.63
2018-09-24T08:19:43.019Z,7.17
2018-09-24T08:22:23.749Z,6.70
2018-09-24T08:25:04.029Z,6.23
2018-09-24T08:27:44.717Z,6.17
2018-09-24T08:30:25.060Z,5.43
2018-09-24T08:33:05.942Z,4.93
2018-09-24T08:35:46.240Z,5.17
2018-09-24T08:38:27.013Z,5.93
2018-09-24T08:41:07.152Z,5.47
2018-09-24T08:43:48.244Z,5.63
2018-09-24T08:46:28.392Z,5.87
2018-09-24T08:49:09.590Z,4.37
2018-09-24T08:51:49.991Z,5.23
2018-09-24T08:54:30.691Z,4.90
2018-09-24T08:57:10.835Z,4.70
2018-09-24T08:59:52.313Z,4.57
2018-09-24T09:02:33.542Z,4.47
2018-09-24T09:05:14.773Z,5.00
2018-09-24T09:07:55.335Z,4.93
2018-09-24T09:10:36.097Z,5.03
2018-09-24T09:13:15.956Z,4.60
2018-09-24T09:15:56.929Z,5.23
2018-09-24T09:18:37.599Z,5.57
2018-09-24T09:21:18.212Z,5.27
2018-09-24T09:23:59.049Z,4.97
2018-09-24T09:26:40.236Z,6.10
2018-09-24T09:29:20.960Z,5.20
2018-09-24T09:32:02.310Z,6.47
2018-09-24T09:34:42.840Z,6.90
2018-09-24T09:37:23.448Z,4.97
2018-09-24T09:40:03.862Z,5.03
2018-09-24T09:42:44.737Z,4.73
2018-09-24T09:45:25.125Z,5.53
2018-09-24T09:48:06.914Z,5.20
2018-09-24T09:50:48.120Z,5.07
2018-09-24T09:53:29.290Z,5.53
2018-09-24T09:56:10.951Z,4.73
2018-09-24T09:58:51.842Z,5.20
2018-09-24T10:01:33.059Z,5.43
2018-09-24T10:04:14.000Z,6.37
2018-09-24T10:06:54.735Z,5.30
2018-09-24T10:09:35.724Z,5.67
2018-09-24T10:12:16.881Z,4.37
2018-09-24T10:14:58.537Z,5.30
2018-09-24T10:17:39.650Z,4.90
2018-09-24T10:20:20.379Z,5.00
2018-09-24T10:23:01.187Z,4.57
2018-09-24T10:25:42.529Z,4.90
2018-09-24T10:28:22.872Z,5.87
2018-09-24T10:31:03.526Z,4.37
2018-09-24T10:33:43.988Z,4.20
2018-09-24T10:36:24.453Z,3.77
2018-09-24T10:39:05.483Z,3.83
2018-09-24T10:41:46.217Z,5.07
2018-09-24T10:44:26.990Z,4.20
2018-09-24T10:47:07.027Z,3.90
2018-09-24T10:49:48.183Z,2.97
2018-09-24T10:52:29.514Z,3.37
2018-09-24T10:55:09.467Z,3.90
2018-09-24T10:57:50.354Z,4.10
2018-09-24T11:00:30.388Z,2.97
2018-09-24T11:03:10.889Z,3.03
2018-09-24T11:05:51.957Z,3.10
2018-09-24T11:08:32.717Z,3.27
2018-09-24T11:11:13.119Z,3.10
2018-09-24T11:13:53.356Z,3.13
2018-09-24T11:16:34.524Z,3.13
2018-09-24T11:19:15.000Z,3.07
2018-09-24T11:21:55.282Z,3.40
2018-09-24T11:24:36.657Z,3.43
2018-09-24T11:27:17.666Z,3.70
2018-09-24T11:29:58.563Z,3.27
2018-09-24T11:32:38.983Z,3.77
2018-09-24T11:35:19.020Z,3.10
2018-09-24T11:38:00.397Z,3.00
2018-09-24T11:40:40.757Z,3.40
2018-09-24T11:43:20.921Z,3.00
2018-09-24T11:46:01.667Z,4.10
2018-09-24T11:48:42.707Z,3.50
2018-09-24T11:51:23.808Z,3.93
2018-09-24T11:54:05.709Z,3.80
2018-09-24T11:56:45.644Z,3.77
2018-09-24T11:59:26.697Z,4.00
2018-09-24T12:02:07.085Z,3.60
2018-09-24T12:04:47.862Z,3.50
2018-09-24T12:07:28.089Z,4.07
2018-09-24T12:10:08.757Z,3.50
2018-09-24T12:12:49.505Z,3.20
2018-09-24T12:15:29.956Z,3.10
2018-09-24T12:18:10.634Z,2.90
2018-09-24T12:20:51.725Z,3.67
2018-09-24T12:23:32.556Z,2.63
2018-09-24T12:26:12.773Z,3.10
2018-09-24T12:28:53.708Z,3.33
2018-09-24T12:31:36.429Z,2.93
2018-09-24T12:34:20.945Z,2.60
2018-09-24T12:37:08.798Z,2.70
2018-09-24T12:39:50.686Z,3.20
2018-09-24T12:42:31.496Z,2.73
2018-09-24T12:45:12.071Z,3.80
2018-09-24T12:47:52.470Z,2.50
2018-09-24T12:50:32.924Z,4.23
2018-09-24T12:53:13.800Z,3.80
2018-09-24T12:55:55.165Z,2.50
2018-09-24T12:58:36.037Z,2.37
2018-09-24T13:01:22.675Z,2.50
2018-09-24T13:04:03.065Z,2.70
2018-09-24T13:06:43.812Z,2.47
2018-09-24T13:09:24.064Z,2.63
2018-09-24T13:12:05.244Z,3.10
2018-09-24T13:14:46.956Z,3.43
2018-09-24T13:17:27.110Z,2.30
2018-09-24T13:20:08.275Z,2.67
2018-09-24T13:22:48.993Z,2.20
2018-09-24T13:25:29.559Z,2.53
2018-09-24T13:28:10.394Z,2.50
2018-09-24T13:30:52.868Z,4.00
2018-09-24T13:33:34.547Z,2.57
2018-09-24T13:36:16.964Z,2.13
2018-09-24T13:38:59.777Z,3.13
2018-09-24T13:41:40.940Z,2.80
2018-09-24T13:44:21.657Z,2.53
2018-09-24T13:47:02.952Z,1.93
2018-09-24T13:49:43.365Z,3.10
2018-09-24T13:52:23.676Z,2.57
2018-09-24T13:55:04.161Z,2.53
2018-09-24T13:57:44.651Z,2.60
2018-09-24T14:00:26.156Z,3.10
2018-09-24T14:03:07.174Z,2.97
2018-09-24T14:05:47.704Z,2.87
2018-09-24T14:08:28.285Z,2.90
2018-09-24T14:11:08.881Z,2.83
2018-09-24T14:13:49.678Z,2.50
2018-09-24T14:16:31.181Z,2.80
2018-09-24T14:19:11.827Z,2.57
2018-09-24T14:21:51.934Z,2.50
2018-09-24T14:24:32.844Z,2.70
2018-09-24T14:27:13.641Z,3.20
2018-09-24T14:29:54.670Z,5.23
2018-09-24T14:32:35.460Z,2.80
2018-09-24T14:35:16.252Z,2.70
2018-09-24T14:37:56.755Z,2.47
2018-09-24T14:40:37.450Z,2.50
2018-09-24T14:43:18.055Z,3.40
2018-09-24T14:45:59.494Z,2.90
2018-09-24T14:48:40.324Z,2.77
2018-09-24T14:51:21.373Z,3.10
2018-09-24T14:54:03.339Z,2.63
2018-09-24T14:56:44.447Z,2.20
2018-09-24T14:59:24.720Z,2.40
2018-09-24T15:02:05.521Z,2.40
2018-09-24T15:04:45.630Z,2.83
2018-09-24T15:07:26.058Z,2.40
2018-09-24T15:10:07.029Z,3.07
2018-09-24T15:12:47.797Z,2.80
2018-09-24T15:15:28.712Z,3.03
2018-09-24T15:18:09.539Z,3.40
2018-09-24T15:20:49.704Z,3.37
2018-09-24T15:23:30.944Z,3.00
2018-09-24T15:26:11.690Z,2.43
2018-09-24T15:28:52.431Z,2.67
2018-09-24T15:31:33.053Z,2.50
2018-09-24T15:34:14.013Z,2.67
2018-09-24T15:36:54.662Z,2.90
2018-09-24T15:39:34.939Z,3.70
2018-09-24T15:42:15.407Z,3.00
2018-09-24T15:44:56.261Z,3.00
2018-09-24T15:47:36.853Z,2.60
2018-09-24T15:50:17.807Z,3.50
2018-09-24T15:52:59.206Z,2.90
2018-09-24T15:55:39.917Z,3.20
2018-09-24T15:58:20.484Z,3.03
2018-09-24T16:01:00.669Z,3.20
2018-09-24T16:03:41.249Z,3.30
2018-09-24T16:06:21.684Z,3.93
2018-09-24T16:09:02.539Z,3.30
2018-09-24T16:11:42.925Z,3.10
2018-09-24T16:14:23.358Z,5.50
2018-09-24T16:17:04.198Z,3.60
2018-09-24T16:19:44.780Z,3.23
2018-09-24T16:22:25.214Z,3.40
2018-09-24T16:25:05.448Z,3.20
2018-09-24T16:27:46.360Z,2.83
2018-09-24T16:30:26.958Z,2.83
2018-09-24T16:33:09.033Z,3.23
2018-09-24T16:35:50.291Z,2.93
2018-09-24T16:38:32.062Z,3.50
2018-09-24T16:41:12.185Z,2.87
2018-09-24T16:43:53.025Z,3.70
2018-09-24T16:46:34.489Z,3.40
2018-09-24T16:49:15.034Z,3.37
2018-09-24T16:51:55.360Z,3.13
2018-09-24T16:54:36.212Z,4.83
2018-09-24T16:57:16.987Z,3.03
2018-09-24T16:59:57.965Z,3.93
2018-09-24T17:02:38.961Z,3.63
2018-09-24T17:05:19.580Z,3.60
2018-09-24T17:07:59.865Z,3.20
2018-09-24T17:10:40.829Z,2.80
2018-09-24T17:13:21.312Z,3.70
2018-09-24T17:16:01.681Z,3.27
2018-09-24T17:18:42.329Z,3.90
2018-09-24T17:21:23.134Z,3.03
2018-09-24T17:24:03.634Z,3.57
2018-09-24T17:26:43.988Z,3.60
2018-09-24T17:29:24.559Z,4.30
2018-09-24T17:32:05.437Z,3.20
2018-09-24T17:34:45.401Z,4.03
2018-09-24T17:37:26.308Z,4.23
2018-09-24T17:40:06.925Z,3.83
2018-09-24T17:42:47.814Z,3.60
2018-09-24T17:45:28.032Z,3.70
2018-09-24T17:48:08.843Z,2.80
2018-09-24T17:50:49.715Z,4.30
2018-09-24T17:53:29.881Z,4.73
2018-09-24T17:56:10.289Z,4.00
2018-09-24T17:58:51.205Z,4.17
2018-09-24T18:01:32.161Z,4.17
2018-09-24T18:04:13.104Z,3.73
2018-09-24T18:06:55.546Z,4.17
2018-09-24T18:09:36.933Z,3.80
2018-09-24T18:12:17.827Z,3.30
2018-09-24T18:14:58.452Z,3.97
2018-09-24T18:17:38.971Z,4.17
2018-09-24T18:20:20.286Z,3.57
2018-09-24T18:23:01.136Z,4.67
2018-09-24T18:25:41.815Z,4.30
2018-09-24T18:28:22.193Z,3.80
2018-09-24T18:31:02.597Z,5.83
2018-09-24T18:33:43.243Z,4.40
2018-09-24T18:36:24.013Z,3.73
2018-09-24T18:39:04.771Z,3.27
2018-09-24T18:41:45.031Z,4.07
2018-09-24T18:44:25.946Z,4.43
2018-09-24T18:47:06.831Z,3.90
2018-09-24T18:49:47.981Z,3.67
2018-09-24T18:52:29.328Z,4.07
2018-09-24T18:55:09.316Z,3.50
2018-09-24T18:57:49.938Z,3.90
2018-09-24T19:00:30.412Z,3.73
2018-09-24T19:03:10.805Z,4.03
2018-09-24T19:05:51.486Z,4.53
2018-09-24T19:08:32.157Z,3.53
2018-09-24T19:11:13.395Z,4.03
2018-09-24T19:13:54.277Z,4.10
2018-09-24T19:16:34.954Z,3.00
2018-09-24T19:19:15.922Z,3.80
2018-09-24T19:21:56.406Z,3.30
2018-09-24T19:24:36.682Z,3.77
2018-09-24T19:27:17.797Z,3.70
2018-09-24T19:29:58.723Z,4.70
2018-09-24T19:32:39.989Z,3.80
2018-09-24T19:35:20.183Z,3.27
2018-09-24T19:38:00.676Z,3.40
2018-09-24T19:40:41.648Z,3.80
2018-09-24T19:43:23.623Z,3.10
2018-09-24T19:46:04.247Z,2.93
2018-09-24T19:48:45.336Z,3.30
2018-09-24T19:51:25.466Z,3.20
2018-09-24T19:54:06.660Z,2.73
2018-09-24T19:56:48.119Z,3.00
2018-09-24T19:59:28.805Z,2.50
2018-09-24T20:02:10.400Z,3.70
2018-09-24T20:04:52.361Z,3.20
2018-09-24T20:07:33.532Z,2.73
2018-09-24T20:10:14.380Z,2.87
2018-09-24T20:12:55.804Z,2.43
2018-09-24T20:15:36.547Z,2.93
2018-09-24T20:18:17.405Z,2.53
2018-09-24T20:20:58.456Z,2.97
2018-09-24T20:23:38.683Z,2.70
2018-09-24T20:26:19.421Z,2.60
2018-09-24T20:28:59.629Z,2.40
2018-09-24T20:31:40.508Z,2.50
2018-09-24T20:34:21.299Z,2.90
2018-09-24T20:37:02.204Z,3.23
2018-09-24T20:39:42.231Z,3.43
2018-09-24T20:42:22.519Z,2.80
2018-09-24T20:45:03.313Z,3.00
2018-09-24T20:47:43.574Z,2.43
2018-09-24T20:50:24.869Z,2.77
2018-09-24T20:53:05.000Z,3.53
2018-09-24T20:55:45.873Z,3.03
2018-09-24T20:58:26.302Z,2.80
2018-09-24T21:01:07.017Z,3.30
2018-09-24T21:03:47.749Z,3.27
2018-09-24T21:06:29.028Z,2.83
2018-09-24T21:09:09.657Z,2.63
2018-09-24T21:11:50.487Z,2.67
2018-09-24T21:14:30.755Z,2.30
2018-09-24T21:17:11.878Z,2.30
2018-09-24T21:19:53.069Z,2.07
2018-09-24T21:22:33.827Z,2.20
2018-09-24T21:25:14.255Z,2.60
2018-09-24T21:27:54.303Z,2.30
2018-09-24T21:30:35.428Z,2.77
2018-09-24T21:33:16.112Z,3.07
2018-09-24T21:35:56.801Z,3.23
2018-09-24T21:38:37.230Z,2.70
2018-09-24T21:41:18.425Z,2.67
2018-09-24T21:43:58.972Z,2.63
2018-09-24T21:46:39.627Z,2.77
2018-09-24T21:49:20.457Z,2.40
2018-09-24T21:52:00.845Z,2.33
2018-09-24T21:54:41.824Z,4.87
2018-09-24T21:57:24.103Z,2.40
2018-09-24T22:00:04.761Z,2.70
2018-09-24T22:02:45.487Z,2.60
2018-09-24T22:05:25.966Z,3.57
2018-09-24T22:08:06.206Z,3.17
2018-09-24T22:10:46.564Z,2.60
2018-09-24T22:13:27.644Z,2.90
2018-09-24T22:16:08.559Z,2.13
2018-09-24T22:18:49.406Z,2.53
2018-09-24T22:21:29.851Z,2.70
2018-09-24T22:24:10.936Z,3.87
2018-09-24T22:26:51.830Z,2.40
2018-09-24T22:29:31.967Z,2.50
2018-09-24T22:32:13.059Z,2.60
2018-09-24T22:34:53.029Z,2.20
2018-09-24T22:37:34.184Z,2.80
2018-09-24T22:40:14.889Z,2.00
2018-09-24T22:42:55.171Z,3.67
2018-09-24T22:45:35.737Z,2.43
2018-09-24T22:48:16.646Z,2.30
2018-09-24T22:50:56.941Z,1.90
2018-09-24T22:53:37.827Z,1.97
2018-09-24T22:56:18.522Z,2.13
2018-09-24T22:58:58.775Z,2.07
2018-09-24T23:01:39.698Z,2.20
2018-09-24T23:04:20.428Z,2.27
2018-09-24T23:07:00.551Z,2.57
2018-09-24T23:09:41.401Z,2.50
2018-09-24T23:12:21.532Z,2.60
2018-09-24T23:15:02.391Z,2.60
2018-09-24T23:17:42.828Z,2.67
2018-09-24T23:20:23.041Z,2.20
2018-09-24T23:23:04.305Z,2.77
2018-09-24T23:25:44.532Z,2.07
2018-09-24T23:28:24.965Z,2.00
2018-09-24T23:31:05.369Z,2.20
2018-09-24T23:33:46.897Z,2.10
2018-09-24T23:36:27.953Z,2.37
2018-09-24T23:39:08.743Z,1.97
2018-09-24T23:41:49.169Z,2.43
2018-09-24T23:44:29.488Z,2.20
2018-09-24T23:47:10.477Z,2.50
2018-09-24T23:49:50.592Z,1.97
2018-09-24T23:52:31.785Z,2.00
2018-09-24T23:55:12.940Z,2.30
2018-09-24T23:57:53.317Z,2.40
